CheckWX is a tool to help pilots better visualize weather data.  It is not intended as a substitute for an official pre-flight weather briefing.

18:47:07 UTC

KTXK METAR
Texarkana Regional-Webb Field Airport
Texarkana, Arkansas, USA
Current

54 mins ago

KTXK 201753Z VRB05KT 10SM CLR 35/21 A3004 RMK AO2 SLP166 T03500211 10350 20250 58001
Observed
Aug-20 @ 17:53 UTC
Wind
  • Variable at 5 KTS
Visibility
10 SM
Flight Rules
VFR
Cloud Levels
  • Clear skies
Temperature
35°C / 95°F
Dewpoint
21°C / 70°F
Heat Index
38°C / 101°F
Humidity
44%
Altimeter
30.04" Hg
Pressure
1017.32 hPa
Previous

2 hours ago

KTXK 201653Z 00000KT 10SM CLR 34/23 A3005 RMK AO2 SLP171 T03440228
Observed
Aug-20 @ 16:53 UTC
Visibility
10 SM
Flight Rules
VFR
Cloud Levels
  • Clear skies
Temperature
34°C / 93°F
Dewpoint
23°C / 73°F
Heat Index
39°C / 103°F
Humidity
53%
Altimeter
30.05" Hg
Pressure
1017.62 hPa
Previous

3 hours ago

KTXK 201553Z 31004KT 10SM CLR 33/23 A3005 RMK AO2 SLP170 T03330233
Observed
Aug-20 @ 15:53 UTC
Wind
  • 310° at 4 KTS
Visibility
10 SM
Flight Rules
VFR
Cloud Levels
  • Clear skies
Temperature
33°C / 91°F
Dewpoint
23°C / 73°F
Heat Index
38°C / 100°F
Humidity
56%
Altimeter
30.05" Hg
Pressure
1017.62 hPa